createdAt,value
2023-02-03T00:02:51.516Z,999.33
2023-02-03T00:07:55.628Z,999.13
2023-02-03T00:12:59.818Z,999.15
2023-02-03T00:18:03.981Z,999.24
2023-02-03T00:23:08.291Z,999.30
2023-02-03T00:28:12.332Z,999.48
2023-02-03T00:33:16.482Z,999.53
2023-02-03T00:38:20.601Z,999.54
2023-02-03T00:43:24.803Z,999.67
2023-02-03T00:48:28.926Z,999.70
2023-02-03T00:53:33.130Z,999.93
2023-02-03T00:58:37.281Z,1000.06
2023-02-03T01:03:39.545Z,1000.35
2023-02-03T01:08:43.722Z,1000.54
2023-02-03T01:13:47.864Z,1000.73
2023-02-03T01:18:52.016Z,1000.97
2023-02-03T01:23:56.200Z,1001.22
2023-02-03T01:29:00.363Z,1001.15
2023-02-03T01:34:04.489Z,1000.99
2023-02-03T01:39:08.688Z,1001.18
2023-02-03T01:44:12.859Z,1001.27
2023-02-03T01:49:16.981Z,1001.28
2023-02-03T01:54:21.166Z,1001.16
2023-02-03T01:59:25.310Z,1001.19
2023-02-03T02:04:29.491Z,1001.24
2023-02-03T02:09:33.672Z,1001.29
2023-02-03T02:14:37.821Z,1001.07
2023-02-03T02:19:41.971Z,1001.03
2023-02-03T02:24:46.154Z,1001.05
2023-02-03T02:29:50.302Z,1000.90
2023-02-03T02:34:54.461Z,1000.85
2023-02-03T02:39:58.626Z,1000.96
2023-02-03T02:45:02.795Z,1000.82
2023-02-03T02:50:05.088Z,1000.83
2023-02-03T02:55:09.213Z,1000.93
2023-02-03T03:00:11.529Z,1000.75
2023-02-03T03:05:15.743Z,1000.68
2023-02-03T03:10:19.809Z,1001.14
2023-02-03T03:15:23.979Z,1001.49
2023-02-03T03:20:28.575Z,1001.43
2023-02-03T03:25:32.298Z,1001.38
2023-02-03T03:30:36.558Z,1001.51
2023-02-03T03:35:40.633Z,1001.57
2023-02-03T03:40:44.771Z,1001.41
2023-02-03T03:45:48.972Z,1001.58
2023-02-03T03:50:53.100Z,1001.57
2023-02-03T03:55:57.244Z,1001.76
2023-02-03T04:01:01.682Z,1001.74
2023-02-03T04:06:05.610Z,1001.90
2023-02-03T04:11:09.770Z,1001.94
2023-02-03T04:16:13.953Z,1001.99
2023-02-03T04:21:18.098Z,1002.00
2023-02-03T04:26:22.276Z,1001.88
2023-02-03T04:31:26.515Z,1002.11
2023-02-03T04:36:30.593Z,1002.12
2023-02-03T04:41:34.743Z,1002.17
2023-02-03T04:46:36.991Z,1002.25
2023-02-03T04:51:41.261Z,1002.21
2023-02-03T04:56:43.444Z,1002.02
2023-02-03T05:01:47.586Z,1002.09
2023-02-03T05:06:49.899Z,1002.06
2023-02-03T05:11:54.058Z,1002.21
2023-02-03T05:16:58.235Z,1002.29
2023-02-03T05:22:02.389Z,1002.31
2023-02-03T05:27:06.532Z,1002.46
2023-02-03T05:32:10.797Z,1002.55
2023-02-03T05:37:14.847Z,1002.70
2023-02-03T05:42:19.009Z,1002.62
2023-02-03T05:47:23.181Z,1002.70
2023-02-03T05:52:27.370Z,1002.58
2023-02-03T05:57:32.420Z,1002.60
2023-02-03T06:02:35.664Z,1002.54
2023-02-03T06:07:39.797Z,1002.47
2023-02-03T06:12:43.968Z,1002.63
2023-02-03T06:17:48.152Z,1002.66
2023-02-03T06:22:52.281Z,1002.50
2023-02-03T06:27:56.530Z,1002.67
2023-02-03T06:33:00.635Z,1002.72
2023-02-03T06:38:02.900Z,1002.72
2023-02-03T06:43:07.100Z,1002.81
2023-02-03T06:48:11.249Z,1002.99
2023-02-03T06:53:13.511Z,1003.15
2023-02-03T06:58:17.705Z,1003.06
2023-02-03T07:03:21.834Z,1003.07
2023-02-03T07:08:26.023Z,1003.02
2023-02-03T07:13:30.144Z,1002.82
2023-02-03T07:18:47.773Z,1002.48
2023-02-03T07:23:38.449Z,1002.33
2023-02-03T07:28:42.644Z,1002.05
2023-02-03T07:33:46.807Z,1002.04
2023-02-03T07:38:50.946Z,1001.92
2023-02-03T07:43:55.141Z,1002.02
2023-02-03T07:48:59.273Z,1002.12
2023-02-03T07:54:03.424Z,1002.40
2023-02-03T07:59:07.589Z,1002.57
2023-02-03T08:04:11.745Z,1002.69
2023-02-03T08:09:15.941Z,1002.74
2023-02-03T08:14:20.114Z,1002.84
2023-02-03T08:19:24.249Z,1003.05
2023-02-03T08:24:28.438Z,1003.26
2023-02-03T08:29:32.599Z,1003.12
2023-02-03T08:34:36.710Z,1003.08
2023-02-03T08:39:39.001Z,1003.02
2023-02-03T08:44:43.192Z,1002.93
2023-02-03T08:49:45.450Z,1002.92
2023-02-03T08:54:49.585Z,1002.71
2023-02-03T08:59:53.792Z,1002.67
2023-02-03T09:04:56.084Z,1002.58
2023-02-03T09:10:00.252Z,1002.62
2023-02-03T09:15:04.343Z,1002.54
2023-02-03T09:20:08.605Z,1002.52
2023-02-03T09:25:12.700Z,1002.53
2023-02-03T09:30:16.843Z,1002.63
2023-02-03T09:35:20.994Z,1002.59
2023-02-03T09:40:25.713Z,1002.58
2023-02-03T09:45:29.361Z,1002.66
2023-02-03T09:50:33.501Z,1002.45
2023-02-03T09:55:37.668Z,1002.31
2023-02-03T10:00:41.834Z,1002.31
2023-02-03T10:05:46.008Z,1002.27
2023-02-03T10:10:50.112Z,1002.25
2023-02-03T10:15:54.287Z,1002.20
2023-02-03T10:20:58.464Z,1002.36
2023-02-03T10:26:02.654Z,1002.34
2023-02-03T10:31:06.913Z,1002.16
2023-02-03T10:36:10.945Z,1002.26
2023-02-03T10:41:15.259Z,1002.30
2023-02-03T10:46:19.385Z,1002.13
2023-02-03T10:51:21.581Z,1002.15
2023-02-03T10:56:25.710Z,1002.12
2023-02-03T11:01:28.056Z,1001.97
2023-02-03T11:06:32.159Z,1002.05
2023-02-03T11:11:36.357Z,1002.00
2023-02-03T11:16:43.358Z,1002.07
2023-02-03T11:21:44.643Z,1002.09
2023-02-03T11:26:48.866Z,1002.14
2023-02-03T11:31:53.125Z,1002.09
2023-02-03T11:36:57.126Z,1002.16
2023-02-03T11:42:01.417Z,1002.16
2023-02-03T11:47:05.431Z,1002.18
2023-02-03T11:52:09.594Z,1002.09
2023-02-03T11:57:13.767Z,1002.23
2023-02-03T12:02:17.923Z,1002.36
2023-02-03T12:07:22.073Z,1002.46
2023-02-03T12:12:26.265Z,1002.52
2023-02-03T12:17:30.414Z,1002.54
2023-02-03T12:22:34.572Z,1002.57
2023-02-03T12:27:38.775Z,1002.71
2023-02-03T12:32:42.907Z,1002.88
2023-02-03T12:37:47.058Z,1002.79
2023-02-03T12:42:51.247Z,1002.41
2023-02-03T12:47:53.497Z,1002.49
2023-02-03T12:52:57.673Z,1002.29
2023-02-03T12:57:59.913Z,1002.13
2023-02-03T13:03:04.069Z,1002.08
2023-02-03T13:08:08.267Z,1002.12
2023-02-03T13:13:12.417Z,1002.04
2023-02-03T13:18:16.646Z,1002.27
2023-02-03T13:23:20.750Z,1002.36
2023-02-03T13:28:24.894Z,1002.39
2023-02-03T13:33:29.035Z,1002.58
2023-02-03T13:38:33.253Z,1002.73
2023-02-03T13:43:39.163Z,1002.85
2023-02-03T13:48:41.556Z,1003.02
2023-02-03T13:53:45.733Z,1003.35
2023-02-03T13:58:51.397Z,1003.45
2023-02-03T14:03:54.186Z,1003.55
2023-02-03T14:08:58.204Z,1003.70
2023-02-03T14:14:02.330Z,1003.25
2023-02-03T14:19:06.481Z,1002.97
2023-02-03T14:24:10.657Z,1002.99
2023-02-03T14:29:14.802Z,1003.03
2023-02-03T14:34:19.003Z,1002.95
2023-02-03T14:39:23.131Z,1002.91
2023-02-03T14:44:25.411Z,1002.76
2023-02-03T14:49:29.615Z,1002.79
2023-02-03T14:54:31.883Z,1002.76
2023-02-03T14:59:36.190Z,1002.74
2023-02-03T15:04:40.281Z,1002.73
2023-02-03T15:09:44.335Z,1002.75
2023-02-03T15:14:48.486Z,1002.67
2023-02-03T15:19:52.702Z,1002.78
2023-02-03T15:24:56.835Z,1002.80
2023-02-03T15:30:00.993Z,1002.81
2023-02-03T15:35:05.151Z,1002.90
2023-02-03T15:40:09.316Z,1003.02
2023-02-03T15:45:13.491Z,1003.06
2023-02-03T15:50:17.627Z,1003.28
2023-02-03T15:55:21.818Z,1003.32
2023-02-03T16:00:25.945Z,1003.34
2023-02-03T16:05:30.440Z,1003.70
2023-02-03T16:10:34.339Z,1003.92
2023-02-03T16:15:38.433Z,1003.90
2023-02-03T16:20:42.642Z,1004.09
2023-02-03T16:25:46.794Z,1004.27
2023-02-03T16:30:51.019Z,1004.29
2023-02-03T16:35:56.161Z,1004.30
2023-02-03T16:40:57.349Z,1004.30
2023-02-03T16:46:01.649Z,1004.54
2023-02-03T16:51:03.792Z,1004.80
2023-02-03T16:56:08.008Z,1004.97
2023-02-03T17:01:12.230Z,1004.90
2023-02-03T17:06:16.276Z,1005.16
2023-02-03T17:11:20.476Z,1005.28
2023-02-03T17:16:24.733Z,1005.47
2023-02-03T17:21:28.815Z,1005.59
2023-02-03T17:26:32.965Z,1005.73
2023-02-03T17:31:37.142Z,1005.97
2023-02-03T17:36:41.273Z,1006.25
2023-02-03T17:56:57.951Z,1006.86
2023-02-03T18:02:02.344Z,1006.84
2023-02-03T18:07:06.180Z,1006.79
2023-02-03T18:12:10.375Z,1006.78
2023-02-03T18:17:14.568Z,1006.73
2023-02-03T18:22:18.678Z,1006.72
2023-02-03T18:27:22.879Z,1006.63
2023-02-03T18:32:26.991Z,1006.70
2023-02-03T18:37:29.299Z,1006.65
2023-02-03T18:42:33.464Z,1006.49
2023-02-03T18:47:35.766Z,1006.51
2023-02-03T18:52:39.921Z,1006.43
2023-02-03T18:57:44.069Z,1006.51
2023-02-03T19:02:48.243Z,1006.66
2023-02-03T19:07:52.396Z,1006.59
2023-02-03T19:12:56.626Z,1006.65
2023-02-03T19:18:00.734Z,1006.70
2023-02-03T19:23:04.921Z,1006.71
2023-02-03T19:28:14.289Z,1006.88
2023-02-03T19:33:13.210Z,1006.97
2023-02-03T19:38:17.357Z,1007.09
2023-02-03T19:43:21.516Z,1007.34
2023-02-03T19:48:25.729Z,1007.54
2023-02-03T19:53:29.842Z,1007.69
2023-02-03T19:58:34.028Z,1007.92
2023-02-03T20:03:38.213Z,1008.00
2023-02-03T20:08:42.346Z,1008.13
2023-02-03T20:13:46.582Z,1008.31
2023-02-03T20:18:50.703Z,1008.40
2023-02-03T20:23:54.820Z,1008.51
2023-02-03T20:28:59.012Z,1008.60
2023-02-03T20:34:01.274Z,1008.65
2023-02-03T20:39:05.433Z,1008.70
2023-02-03T20:44:07.740Z,1009.03
2023-02-03T20:49:11.888Z,1009.29
2023-02-03T20:54:16.047Z,1009.62
2023-02-03T20:59:20.190Z,1009.85
2023-02-03T21:04:24.396Z,1010.09
2023-02-03T21:09:28.559Z,1010.30
2023-02-03T21:14:32.700Z,1010.39
2023-02-03T21:19:36.870Z,1010.57
2023-02-03T21:24:41.015Z,1010.82
2023-02-03T21:29:45.166Z,1010.92
2023-02-03T21:34:49.363Z,1011.07
2023-02-03T21:39:53.512Z,1011.24
2023-02-03T21:44:57.658Z,1011.57
2023-02-03T21:50:01.827Z,1011.80
2023-02-03T21:55:06.006Z,1011.86
2023-02-03T22:00:10.139Z,1011.80
2023-02-03T22:05:14.319Z,1011.77
2023-02-03T22:10:18.473Z,1011.89
2023-02-03T22:15:22.679Z,1012.03
2023-02-03T22:20:26.844Z,1012.01
2023-02-03T22:25:31.124Z,1012.15
2023-02-03T22:30:33.729Z,1012.25
2023-02-03T22:35:37.428Z,1012.23
2023-02-03T22:40:39.658Z,1012.22
2023-02-03T22:45:43.884Z,1012.20
2023-02-03T22:50:47.999Z,1012.26
2023-02-03T22:55:52.176Z,1012.27
2023-02-03T23:00:56.311Z,1012.42
2023-02-03T23:06:00.484Z,1012.51
2023-02-03T23:11:04.695Z,1012.46
2023-02-03T23:16:08.861Z,1012.55
2023-02-03T23:21:13.064Z,1012.60
2023-02-03T23:26:17.225Z,1012.52
2023-02-03T23:36:23.716Z,1012.71
2023-02-03T23:41:27.750Z,1012.66
2023-02-03T23:46:33.967Z,1012.66
2023-02-03T23:51:36.070Z,1012.59
2023-02-03T23:56:40.191Z,1012.48
